createdAt,value
2023-04-10T00:02:50.159Z,5.70
2023-04-10T00:05:39.716Z,5.70
2023-04-10T00:08:29.713Z,5.70
2023-04-10T00:11:19.087Z,5.60
2023-04-10T00:14:08.846Z,5.70
2023-04-10T00:16:59.795Z,5.70
2023-04-10T00:19:49.579Z,5.70
2023-04-10T00:22:38.993Z,5.70
2023-04-10T00:25:28.612Z,5.60
2023-04-10T00:28:18.247Z,5.60
2023-04-10T00:31:07.922Z,5.60
2023-04-10T00:33:59.285Z,5.60
2023-04-10T00:36:48.831Z,5.50
2023-04-10T00:39:38.326Z,5.50
2023-04-10T00:42:28.668Z,5.40
2023-04-10T00:45:18.268Z,5.40
2023-04-10T00:48:08.135Z,5.40
2023-04-10T00:50:59.297Z,5.40
2023-04-10T00:53:52.342Z,5.40
2023-04-10T00:56:42.393Z,5.40
2023-04-10T00:59:31.979Z,5.30
2023-04-10T01:02:21.768Z,5.30
2023-04-10T01:05:13.245Z,5.30
2023-04-10T01:08:14.510Z,5.30
2023-04-10T01:11:08.984Z,5.20
2023-04-10T01:14:09.339Z,5.20
2023-04-10T01:17:03.268Z,5.20
2023-04-10T01:20:04.742Z,5.10
2023-04-10T01:23:33.038Z,5.00
2023-04-10T01:26:38.485Z,4.90
2023-04-10T01:29:32.451Z,4.90
2023-04-10T01:32:23.838Z,4.90
2023-04-10T01:35:17.444Z,4.80
2023-04-10T01:38:08.426Z,4.80
2023-04-10T01:40:59.781Z,4.80
2023-04-10T01:43:52.808Z,4.80
2023-04-10T01:46:45.720Z,4.80
2023-04-10T01:49:36.685Z,4.80
2023-04-10T01:52:26.985Z,4.80
2023-04-10T01:55:17.363Z,4.80
2023-04-10T01:58:07.310Z,4.80
2023-04-10T02:00:57.111Z,4.80
2023-04-10T02:03:48.043Z,4.80
2023-04-10T02:06:47.022Z,4.80
2023-04-10T02:09:47.480Z,4.70
2023-04-10T02:12:41.093Z,4.80
2023-04-10T02:15:33.823Z,4.80
2023-04-10T02:18:25.237Z,4.70
2023-04-10T02:21:16.665Z,4.70
2023-04-10T02:24:06.487Z,4.70
2023-04-10T02:26:56.714Z,4.80
2023-04-10T02:29:46.184Z,4.90
2023-04-10T02:32:35.928Z,4.80
2023-04-10T02:35:25.187Z,4.80
2023-04-10T02:38:17.371Z,4.90
2023-04-10T02:41:07.519Z,4.90
2023-04-10T02:43:57.567Z,4.90
2023-04-10T02:46:47.492Z,4.80
2023-04-10T02:49:37.214Z,4.90
2023-04-10T02:52:27.505Z,4.90
2023-04-10T02:55:18.533Z,4.90
2023-04-10T02:58:08.273Z,4.90
2023-04-10T03:00:58.171Z,4.90
2023-04-10T03:03:47.913Z,4.90
2023-04-10T03:06:37.325Z,4.80
2023-04-10T03:09:26.710Z,4.80
2023-04-10T03:12:17.921Z,4.80
2023-04-10T03:15:08.953Z,4.70
2023-04-10T03:17:58.332Z,4.70
2023-04-10T03:20:47.888Z,4.70
2023-04-10T03:23:37.397Z,4.70
2023-04-10T03:26:27.326Z,4.60
2023-04-10T03:29:19.473Z,4.60
2023-04-10T03:32:09.206Z,4.60
2023-04-10T03:34:59.079Z,4.60
2023-04-10T03:37:48.507Z,4.50
2023-04-10T03:40:38.589Z,4.50
2023-04-10T03:43:27.985Z,4.50
2023-04-10T03:46:19.277Z,4.50
2023-04-10T03:49:08.670Z,4.40
2023-04-10T03:51:58.724Z,4.40
2023-04-10T03:54:48.336Z,4.40
2023-04-10T03:57:37.604Z,4.30
2023-04-10T04:00:28.906Z,4.30
2023-04-10T04:03:19.954Z,4.30
2023-04-10T04:06:09.922Z,4.30
2023-04-10T04:08:59.283Z,4.30
2023-04-10T04:11:49.144Z,4.30
2023-04-10T04:14:38.915Z,4.20
2023-04-10T04:17:28.439Z,4.10
2023-04-10T04:20:19.861Z,4.10
2023-04-10T04:23:09.322Z,4.10
2023-04-10T04:26:00.373Z,4.20
2023-04-10T04:28:49.760Z,4.30
2023-04-10T04:31:39.543Z,4.40
2023-04-10T04:34:29.012Z,4.50
2023-04-10T04:37:20.169Z,4.70
2023-04-10T04:40:10.725Z,4.70
2023-04-10T04:43:00.170Z,4.70
2023-04-10T04:45:49.871Z,4.80
2023-04-10T04:48:39.284Z,4.80
2023-04-10T04:51:29.295Z,4.90
2023-04-10T04:54:20.469Z,4.90
2023-04-10T04:57:10.593Z,5.00
2023-04-10T05:00:00.343Z,5.10
2023-04-10T05:02:50.141Z,5.20
2023-04-10T05:05:39.671Z,5.40
2023-04-10T05:08:29.528Z,5.50
2023-04-10T05:11:20.442Z,5.60
2023-04-10T05:14:09.960Z,5.70
2023-04-10T05:17:01.073Z,5.80
2023-04-10T05:19:51.806Z,5.90
2023-04-10T05:22:41.131Z,6.00
2023-04-10T05:25:30.948Z,6.10
2023-04-10T05:28:22.543Z,6.30
2023-04-10T05:31:11.944Z,6.40
2023-04-10T05:34:01.876Z,6.50
2023-04-10T05:36:51.449Z,6.70
2023-04-10T05:39:40.971Z,6.80
2023-04-10T05:42:30.922Z,6.90
2023-04-10T05:45:22.158Z,7.10
2023-04-10T05:48:11.564Z,7.30
2023-04-10T05:51:01.539Z,7.50
2023-04-10T05:53:52.099Z,7.50
2023-04-10T05:56:41.807Z,7.70
2023-04-10T05:59:31.367Z,7.90
2023-04-10T06:02:22.944Z,8.10
2023-04-10T06:05:12.698Z,8.30
2023-04-10T06:08:02.401Z,8.50
2023-04-10T06:10:51.869Z,8.60
2023-04-10T06:13:41.537Z,8.80
2023-04-10T06:16:31.056Z,9.00
2023-04-10T06:19:22.046Z,9.20
2023-04-10T06:22:11.684Z,9.30
2023-04-10T06:25:01.241Z,9.40
2023-04-10T06:27:50.978Z,9.60
2023-04-10T06:30:41.358Z,9.70
2023-04-10T06:33:30.962Z,10.00
2023-04-10T06:36:22.362Z,10.10
2023-04-10T06:39:12.244Z,10.20
2023-04-10T06:42:03.991Z,10.30
2023-04-10T06:44:53.885Z,10.50
2023-04-10T06:47:43.515Z,10.70
2023-04-10T06:50:33.503Z,10.70
2023-04-10T06:53:25.107Z,10.90
2023-04-10T06:56:14.565Z,11.10
2023-04-10T06:59:04.113Z,11.20
2023-04-10T07:01:53.529Z,11.40
2023-04-10T07:04:43.957Z,11.50
2023-04-10T07:07:33.387Z,11.70
2023-04-10T07:10:25.629Z,11.80
2023-04-10T07:13:16.758Z,11.80
2023-04-10T07:16:06.950Z,12.10
2023-04-10T07:18:57.173Z,12.20
2023-04-10T07:21:50.345Z,12.30
2023-04-10T07:24:40.187Z,12.40
2023-04-10T07:27:31.305Z,12.60
2023-04-10T07:30:21.669Z,12.70
2023-04-10T07:33:19.715Z,12.80
2023-04-10T07:36:10.484Z,13.00
2023-04-10T07:39:00.010Z,12.90
2023-04-10T07:41:49.906Z,13.10
2023-04-10T07:44:40.848Z,13.10
2023-04-10T07:47:30.484Z,13.30
2023-04-10T07:50:20.528Z,13.30
2023-04-10T07:53:10.106Z,13.50
2023-04-10T07:55:59.906Z,13.60
2023-04-10T07:58:49.839Z,13.70
2023-04-10T08:01:41.222Z,13.80
2023-04-10T08:04:31.612Z,13.90
2023-04-10T08:07:22.041Z,14.10
2023-04-10T08:10:12.825Z,14.20
2023-04-10T08:13:02.675Z,14.30
2023-04-10T08:15:53.073Z,14.40
2023-04-10T08:18:44.256Z,14.40
2023-04-10T08:21:34.391Z,14.70
2023-04-10T08:24:25.303Z,14.80
2023-04-10T08:27:16.660Z,14.80
2023-04-10T08:30:07.389Z,14.90
2023-04-10T08:32:57.029Z,15.00
2023-04-10T08:35:50.016Z,15.20
2023-04-10T08:38:40.012Z,15.40
2023-04-10T08:41:29.440Z,15.40
2023-04-10T08:44:19.733Z,15.40
2023-04-10T08:47:10.254Z,15.50
2023-04-10T08:50:04.460Z,15.60
2023-04-10T08:52:58.148Z,15.60
2023-04-10T08:55:48.975Z,15.60
2023-04-10T08:58:38.526Z,15.80
2023-04-10T09:01:28.138Z,15.90
2023-04-10T09:04:19.000Z,16.10
2023-04-10T09:07:11.308Z,16.00
2023-04-10T09:10:02.763Z,16.10
2023-04-10T09:12:53.152Z,16.20
2023-04-10T09:16:01.733Z,16.30
2023-04-10T09:18:53.161Z,16.40
2023-04-10T09:21:52.402Z,16.40
2023-04-10T09:24:44.026Z,16.50
2023-04-10T09:27:36.570Z,16.60
2023-04-10T09:30:36.862Z,16.50
2023-04-10T09:33:28.398Z,16.70
2023-04-10T09:36:21.170Z,16.80
2023-04-10T09:39:13.185Z,16.90
2023-04-10T09:42:02.786Z,17.20
2023-04-10T09:44:58.119Z,17.20
2023-04-10T09:48:03.884Z,17.20
2023-04-10T09:50:53.780Z,17.40
2023-04-10T09:53:53.574Z,17.40
2023-04-10T09:56:46.854Z,17.50
2023-04-10T09:59:41.839Z,17.70
2023-04-10T10:02:37.934Z,17.80
2023-04-10T10:05:30.861Z,17.50
2023-04-10T10:08:21.146Z,17.70
2023-04-10T10:11:12.906Z,17.60
2023-04-10T10:14:06.101Z,17.40
2023-04-10T10:16:58.414Z,17.50
2023-04-10T10:19:56.353Z,17.40
2023-04-10T10:22:47.057Z,17.80
2023-04-10T10:25:38.373Z,17.60
2023-04-10T10:28:29.704Z,17.60
2023-04-10T10:31:24.686Z,17.40
2023-04-10T10:34:14.691Z,17.20
2023-04-10T10:37:06.525Z,17.40
2023-04-10T10:40:03.309Z,17.80
2023-04-10T10:43:00.572Z,17.90
2023-04-10T10:45:56.413Z,17.90
2023-04-10T10:48:58.511Z,17.80
2023-04-10T10:51:49.914Z,18.40
2023-04-10T10:54:49.976Z,18.90
2023-04-10T10:57:54.188Z,19.30
2023-04-10T11:01:20.839Z,19.30
2023-04-10T11:04:40.051Z,19.70
2023-04-10T11:08:11.911Z,19.80
2023-04-10T11:11:08.157Z,19.50
2023-04-10T11:14:20.649Z,19.40
2023-04-10T11:17:10.281Z,19.40
2023-04-10T11:20:01.396Z,19.40
2023-04-10T11:23:12.261Z,19.60
2023-04-10T11:26:02.372Z,19.80
2023-04-10T11:28:53.825Z,19.90
2023-04-10T11:31:45.630Z,20.00
2023-04-10T11:34:35.850Z,19.90
2023-04-10T11:37:25.984Z,20.00
2023-04-10T11:40:17.192Z,19.90
2023-04-10T11:43:16.306Z,20.00
2023-04-10T11:46:09.225Z,20.00
2023-04-10T11:49:01.843Z,20.10
2023-04-10T11:51:53.292Z,20.10
2023-04-10T11:54:50.829Z,19.90
2023-04-10T11:57:40.341Z,20.00
2023-04-10T12:00:29.882Z,20.50
2023-04-10T12:03:34.490Z,20.50
2023-04-10T12:06:24.737Z,20.30
2023-04-10T12:09:16.440Z,20.40
2023-04-10T12:12:07.985Z,20.20
2023-04-10T12:14:57.800Z,20.60
2023-04-10T12:17:47.775Z,20.80
2023-04-10T12:20:39.454Z,20.90
2023-04-10T12:23:31.386Z,20.40
2023-04-10T12:26:21.189Z,20.60
2023-04-10T12:29:11.220Z,20.60
2023-04-10T12:32:09.166Z,20.50
2023-04-10T12:35:01.974Z,20.60
2023-04-10T12:37:57.490Z,20.40
2023-04-10T12:41:03.398Z,20.30
2023-04-10T12:43:57.034Z,20.10
2023-04-10T12:46:47.347Z,19.90
2023-04-10T12:49:38.620Z,20.00
2023-04-10T12:52:33.625Z,19.80
2023-04-10T12:55:27.300Z,20.00
2023-04-10T12:58:21.639Z,20.40
2023-04-10T13:01:11.720Z,21.00
2023-04-10T13:04:01.575Z,21.10
2023-04-10T13:06:53.390Z,21.00
2023-04-10T13:09:43.816Z,20.70
2023-04-10T13:12:36.716Z,20.80
2023-04-10T13:15:29.509Z,21.00
2023-04-10T13:18:20.093Z,21.10
2023-04-10T13:21:09.894Z,20.80
2023-04-10T13:24:00.789Z,20.80
2023-04-10T13:26:50.235Z,20.40
2023-04-10T13:29:42.537Z,20.20
2023-04-10T13:32:31.988Z,19.70
2023-04-10T13:35:21.466Z,19.40
2023-04-10T13:38:12.126Z,19.10
2023-04-10T13:41:01.434Z,18.70
2023-04-10T13:43:50.928Z,18.30
2023-04-10T13:46:42.432Z,18.00
2023-04-10T13:49:31.989Z,17.70
2023-04-10T13:52:21.376Z,17.50
2023-04-10T13:55:11.668Z,17.30
2023-04-10T13:58:01.277Z,17.10
2023-04-10T14:00:50.809Z,16.80
2023-04-10T14:03:42.501Z,16.60
2023-04-10T14:06:32.437Z,16.40
2023-04-10T14:09:21.953Z,16.20
2023-04-10T14:12:12.367Z,16.10
2023-04-10T14:15:01.904Z,16.00
2023-04-10T14:17:51.446Z,15.90
2023-04-10T14:20:44.321Z,15.70
2023-04-10T14:23:34.931Z,15.80
2023-04-10T14:26:25.285Z,15.70
2023-04-10T14:29:18.188Z,15.70
2023-04-10T14:32:12.260Z,15.80
2023-04-10T14:35:01.814Z,15.70
2023-04-10T14:37:53.039Z,15.80
2023-04-10T14:40:42.583Z,15.90
2023-04-10T14:43:32.115Z,16.00
2023-04-10T14:46:22.131Z,16.10
2023-04-10T14:49:12.164Z,16.30
2023-04-10T14:52:02.340Z,16.40
2023-04-10T14:54:53.367Z,16.40
2023-04-10T14:57:43.197Z,16.40
2023-04-10T15:00:33.388Z,16.40
2023-04-10T15:03:25.218Z,16.50
2023-04-10T15:06:14.860Z,16.50
2023-04-10T15:09:05.186Z,16.60
2023-04-10T15:11:57.736Z,16.70
2023-04-10T15:14:47.146Z,16.70
2023-04-10T15:17:36.965Z,16.60
2023-04-10T15:20:26.524Z,16.60
2023-04-10T15:23:17.324Z,16.60
2023-04-10T15:26:07.021Z,16.60
2023-04-10T15:28:59.788Z,16.60
2023-04-10T15:31:51.529Z,16.60
2023-04-10T15:34:41.516Z,16.50
2023-04-10T15:37:31.505Z,16.40
2023-04-10T15:40:21.066Z,16.40
2023-04-10T15:43:11.143Z,16.50
2023-04-10T15:46:02.644Z,16.30
2023-04-10T15:48:52.787Z,16.10
2023-04-10T15:51:42.359Z,15.90
2023-04-10T15:54:31.911Z,15.80
2023-04-10T15:57:21.508Z,15.70
2023-04-10T16:00:12.063Z,15.70
2023-04-10T16:03:03.075Z,15.60
2023-04-10T16:05:53.908Z,15.50
2023-04-10T16:08:44.064Z,15.50
2023-04-10T16:11:34.485Z,15.40
2023-04-10T16:14:24.162Z,15.30
2023-04-10T16:17:13.497Z,15.10
2023-04-10T16:20:07.635Z,15.00
2023-04-10T16:22:58.396Z,14.90
2023-04-10T16:25:47.850Z,14.80
2023-04-10T16:28:37.586Z,14.70
2023-04-10T16:31:28.010Z,14.60
2023-04-10T16:34:18.386Z,14.40
2023-04-10T16:37:10.743Z,14.30
2023-04-10T16:40:01.377Z,14.20
2023-04-10T16:42:51.324Z,14.00
2023-04-10T16:45:41.724Z,13.90
2023-04-10T16:48:33.077Z,13.80
2023-04-10T16:51:25.032Z,13.60
2023-04-10T16:54:18.761Z,13.50
2023-04-10T16:57:08.236Z,13.40
2023-04-10T17:00:01.930Z,13.20
2023-04-10T17:02:51.615Z,13.10
2023-04-10T17:05:41.056Z,12.90
2023-04-10T17:08:30.939Z,12.80
2023-04-10T17:11:21.912Z,12.70
2023-04-10T17:14:13.722Z,12.50
2023-04-10T17:17:03.713Z,12.40
2023-04-10T17:19:55.155Z,12.30
2023-04-10T17:22:45.061Z,12.20
2023-04-10T17:25:34.852Z,12.10
2023-04-10T17:28:25.957Z,11.90
2023-04-10T17:31:16.288Z,11.80
2023-04-10T17:34:05.944Z,11.70
2023-04-10T17:36:55.987Z,11.60
2023-04-10T17:39:45.852Z,11.50
2023-04-10T17:42:35.710Z,11.40
2023-04-10T17:45:26.625Z,11.30
2023-04-10T17:48:16.539Z,11.20
2023-04-10T17:51:07.865Z,11.10
2023-04-10T17:53:57.282Z,11.00
2023-04-10T17:56:50.571Z,10.90
2023-04-10T17:59:41.547Z,10.90
2023-04-10T18:02:37.439Z,10.80
2023-04-10T18:05:30.401Z,10.70
2023-04-10T18:08:22.041Z,10.60
2023-04-10T18:11:14.666Z,10.60
2023-04-10T18:14:05.446Z,10.50
2023-04-10T18:16:56.254Z,10.40
2023-04-10T18:19:47.514Z,10.30
2023-04-10T18:22:37.043Z,10.20
2023-04-10T18:25:28.537Z,10.10
2023-04-10T18:28:20.440Z,10.10
2023-04-10T18:31:10.390Z,10.10
2023-04-10T18:34:08.346Z,10.20
2023-04-10T18:37:00.615Z,10.30
2023-04-10T18:39:57.011Z,10.40
2023-04-10T18:42:50.902Z,10.40
2023-04-10T18:45:42.943Z,10.40
2023-04-10T18:48:33.788Z,10.40
2023-04-10T18:51:23.533Z,10.30
2023-04-10T18:54:15.922Z,10.20
2023-04-10T18:57:05.712Z,10.20
2023-04-10T18:59:56.289Z,10.20
2023-04-10T19:02:47.391Z,10.20
2023-04-10T19:05:39.000Z,10.20
2023-04-10T19:08:28.609Z,10.10
2023-04-10T19:11:21.172Z,10.10
2023-04-10T19:14:13.186Z,10.00
2023-04-10T19:17:07.782Z,10.00
2023-04-10T19:19:58.755Z,10.10
2023-04-10T19:22:48.839Z,10.10
2023-04-10T19:25:39.664Z,10.10
2023-04-10T19:28:31.344Z,10.00
2023-04-10T19:31:24.504Z,10.00
2023-04-10T19:34:15.077Z,9.90
2023-04-10T19:37:04.622Z,9.90
2023-04-10T19:39:54.331Z,9.90
2023-04-10T19:42:43.743Z,9.80
2023-04-10T19:45:39.106Z,9.70
2023-04-10T19:48:29.703Z,9.70
2023-04-10T19:51:19.901Z,9.60
2023-04-10T19:54:11.406Z,9.50
2023-04-10T19:57:02.661Z,9.30
2023-04-10T19:59:54.238Z,9.20
2023-04-10T20:02:46.486Z,9.10
2023-04-10T20:05:37.497Z,8.90
2023-04-10T20:08:27.275Z,8.80
2023-04-10T20:11:18.113Z,8.80
2023-04-10T20:14:07.539Z,8.60
2023-04-10T20:16:56.941Z,8.60
2023-04-10T20:19:47.930Z,8.50
2023-04-10T20:22:37.925Z,8.50
2023-04-10T20:25:27.502Z,8.40
2023-04-10T20:28:18.257Z,8.40
2023-04-10T20:31:07.953Z,8.30
2023-04-10T20:33:57.746Z,8.20
2023-04-10T20:36:48.748Z,8.20
2023-04-10T20:39:38.981Z,8.00
2023-04-10T20:42:28.929Z,8.00
2023-04-10T20:45:18.446Z,8.00
2023-04-10T20:48:09.160Z,8.00
2023-04-10T20:51:00.003Z,8.10
2023-04-10T20:53:50.957Z,8.10
2023-04-10T20:57:00.175Z,8.10
2023-04-10T20:59:53.260Z,8.10
2023-04-10T21:03:09.124Z,8.00
2023-04-10T21:06:04.706Z,8.00
2023-04-10T21:09:29.853Z,7.90
2023-04-10T21:12:19.268Z,7.80
2023-04-10T21:15:10.490Z,7.60
2023-04-10T21:21:54.672Z,7.40
2023-04-10T21:24:50.151Z,7.30
2023-04-10T21:27:39.572Z,7.20
2023-04-10T21:30:29.489Z,7.20
2023-04-10T21:33:27.725Z,7.10
2023-04-10T21:36:17.244Z,7.00
2023-04-10T21:39:13.716Z,6.90
2023-04-10T21:42:05.291Z,6.90
2023-04-10T21:44:55.827Z,6.80
2023-04-10T21:47:45.195Z,6.80
2023-04-10T21:50:35.346Z,6.70
2023-04-10T21:53:24.709Z,6.70
2023-04-10T21:56:14.490Z,6.60
2023-04-10T21:59:05.392Z,6.60
2023-04-10T22:01:55.261Z,6.60
2023-04-10T22:04:53.970Z,6.50
2023-04-10T22:07:44.402Z,6.50
2023-04-10T22:10:33.911Z,6.40
2023-04-10T22:13:30.487Z,6.40
2023-04-10T22:16:21.903Z,6.30
2023-04-10T22:19:11.965Z,6.20
2023-04-10T22:22:01.424Z,6.20
2023-04-10T22:24:50.794Z,6.20
2023-04-10T22:27:40.697Z,6.10
2023-04-10T22:30:30.044Z,6.10
2023-04-10T22:33:21.392Z,6.00
2023-04-10T22:36:11.509Z,6.00
2023-04-10T22:39:01.462Z,6.00
2023-04-10T22:41:50.954Z,5.90
2023-04-10T22:44:40.584Z,5.90
2023-04-10T22:47:30.087Z,5.90
2023-04-10T22:50:21.856Z,5.80
2023-04-10T22:53:12.210Z,5.80
2023-04-10T22:56:01.551Z,5.80
2023-04-10T22:58:51.691Z,5.70
2023-04-10T23:01:41.627Z,5.70
2023-04-10T23:04:31.379Z,5.60
2023-04-10T23:07:22.251Z,5.60
2023-04-10T23:10:11.966Z,5.50
2023-04-10T23:13:01.474Z,5.50
2023-04-10T23:15:51.745Z,5.50
2023-04-10T23:18:41.645Z,5.40
2023-04-10T23:21:31.944Z,5.40
2023-04-10T23:24:23.247Z,5.30
2023-04-10T23:27:12.708Z,5.30
2023-04-10T23:30:02.707Z,5.30
2023-04-10T23:32:52.360Z,5.30
2023-04-10T23:35:41.805Z,5.30
2023-04-10T23:38:31.783Z,5.30
2023-04-10T23:41:23.155Z,5.30
2023-04-10T23:44:12.568Z,5.20
2023-04-10T23:47:02.149Z,5.20
2023-04-10T23:49:52.510Z,5.20
2023-04-10T23:52:41.990Z,5.10
2023-04-10T23:55:31.425Z,5.10
2023-04-10T23:58:22.698Z,5.10
